createdAt,value
2019-04-05T00:00:09.645Z,11.03
2019-04-05T00:02:39.411Z,10.89
2019-04-05T00:05:09.372Z,10.75
2019-04-05T00:07:38.872Z,10.62
2019-04-05T00:10:09.582Z,10.50
2019-04-05T00:12:39.281Z,10.38
2019-04-05T00:15:15.450Z,10.25
2019-04-05T00:17:40.204Z,10.13
2019-04-05T00:20:09.993Z,10.07
2019-04-05T00:22:39.446Z,9.95
2019-04-05T00:25:09.059Z,9.87
2019-04-05T00:27:38.523Z,9.71
2019-04-05T00:30:08.389Z,9.65
2019-04-05T00:32:37.927Z,9.55
2019-04-05T00:35:08.011Z,9.53
2019-04-05T00:37:37.481Z,9.45
2019-04-05T00:40:09.165Z,9.40
2019-04-05T00:42:39.006Z,9.31
2019-04-05T00:45:08.624Z,9.24
2019-04-05T00:47:38.102Z,9.16
2019-04-05T00:50:07.937Z,9.13
2019-04-05T00:52:37.401Z,9.12
2019-04-05T00:55:07.215Z,9.13
2019-04-05T00:57:37.209Z,9.11
2019-04-05T01:00:07.332Z,9.07
2019-04-05T01:02:36.805Z,9.03
2019-04-05T01:05:07.787Z,9.02
2019-04-05T01:07:37.574Z,9.05
2019-04-05T01:10:07.495Z,9.09
2019-04-05T01:12:37.718Z,9.11
2019-04-05T01:15:09.888Z,9.03
2019-04-05T01:17:39.785Z,8.93
2019-04-05T01:20:10.139Z,8.92
2019-04-05T01:22:41.951Z,8.87
2019-04-05T01:25:12.456Z,8.83
2019-04-05T01:27:42.565Z,8.79
2019-04-05T01:30:14.612Z,8.82
2019-04-05T01:32:44.463Z,8.90
2019-04-05T01:35:14.398Z,9.00
2019-04-05T01:37:45.222Z,9.09
2019-04-05T01:40:15.411Z,9.08
2019-04-05T01:42:45.111Z,9.08
2019-04-05T01:45:14.811Z,9.09
2019-04-05T01:47:44.834Z,9.14
2019-04-05T01:50:14.622Z,9.10
2019-04-05T01:52:44.237Z,9.05
2019-04-05T01:55:13.941Z,9.06
2019-04-05T01:57:43.866Z,9.10
2019-04-05T02:00:14.109Z,9.09
2019-04-05T02:02:43.832Z,9.07
2019-04-05T02:05:13.446Z,9.09
2019-04-05T02:07:43.335Z,9.11
2019-04-05T02:10:13.662Z,9.10
2019-04-05T02:12:43.476Z,9.05
2019-04-05T02:15:21.796Z,8.98
2019-04-05T02:17:51.603Z,8.93
2019-04-05T02:20:21.439Z,8.94
2019-04-05T02:22:50.895Z,8.86
2019-04-05T02:25:20.439Z,8.80
2019-04-05T02:27:49.889Z,8.73
2019-04-05T02:30:19.654Z,8.70
2019-04-05T02:32:49.190Z,8.71
2019-04-05T02:35:19.555Z,8.70
2019-04-05T02:37:49.087Z,8.71
2019-04-05T02:40:18.953Z,8.74
2019-04-05T02:42:49.529Z,8.69
2019-04-05T02:45:21.004Z,8.68
2019-04-05T02:47:53.660Z,8.63
2019-04-05T02:50:25.234Z,8.65
2019-04-05T02:52:57.320Z,8.63
2019-04-05T02:55:27.999Z,8.59
2019-04-05T02:57:58.800Z,8.57
2019-04-05T03:00:29.229Z,8.56
2019-04-05T03:02:59.497Z,8.69
2019-04-05T03:05:28.978Z,8.85
2019-04-05T03:07:58.772Z,9.02
2019-04-05T03:10:46.457Z,9.14
2019-04-05T03:13:15.930Z,9.21
2019-04-05T03:15:45.881Z,9.27
2019-04-05T03:18:15.898Z,9.40
2019-04-05T03:20:45.560Z,9.45
2019-04-05T03:23:15.081Z,9.44
2019-04-05T03:25:48.173Z,9.51
2019-04-05T03:28:16.570Z,9.49
2019-04-05T03:30:46.255Z,9.51
2019-04-05T03:33:15.952Z,9.48
2019-04-05T03:35:45.830Z,9.48
2019-04-05T03:38:15.380Z,9.53
2019-04-05T03:40:44.840Z,9.56
2019-04-05T03:43:14.308Z,9.53
2019-04-05T03:45:43.941Z,9.58
2019-04-05T03:48:13.438Z,9.58
2019-04-05T03:50:45.136Z,9.61
2019-04-05T03:53:14.414Z,9.66
2019-04-05T03:55:44.277Z,9.66
2019-04-05T03:58:13.730Z,9.66
2019-04-05T04:00:43.224Z,9.68
2019-04-05T04:03:12.771Z,9.70
2019-04-05T04:05:42.226Z,9.67
2019-04-05T04:08:11.962Z,9.66
2019-04-05T04:10:41.436Z,9.67
2019-04-05T04:13:10.974Z,9.70
2019-04-05T04:15:40.487Z,9.68
2019-04-05T04:18:10.342Z,9.71
2019-04-05T04:20:50.889Z,9.66
2019-04-05T04:23:23.910Z,9.67
2019-04-05T04:25:54.367Z,9.70
2019-04-05T04:28:23.828Z,9.68
2019-04-05T04:30:53.756Z,9.58
2019-04-05T04:33:23.490Z,9.55
2019-04-05T04:35:53.604Z,9.60
2019-04-05T04:38:23.133Z,9.66
2019-04-05T04:40:52.620Z,9.59
2019-04-05T04:43:22.068Z,9.61
2019-04-05T04:45:51.909Z,9.55
2019-04-05T04:48:21.548Z,9.52
2019-04-05T04:50:51.249Z,9.46
2019-04-05T04:53:20.754Z,9.44
2019-04-05T04:55:50.493Z,9.42
2019-04-05T04:58:19.963Z,9.47
2019-04-05T05:00:49.737Z,9.48
2019-04-05T05:03:19.181Z,9.48
2019-04-05T05:05:48.916Z,9.43
2019-04-05T05:08:18.384Z,9.47
2019-04-05T05:10:48.459Z,9.56
2019-04-05T05:13:17.983Z,9.52
2019-04-05T05:15:47.548Z,9.67
2019-04-05T05:18:17.175Z,9.67
2019-04-05T05:20:46.673Z,9.72
2019-04-05T05:23:16.133Z,9.81
2019-04-05T05:25:47.020Z,9.89
2019-04-05T05:28:16.745Z,9.94
2019-04-05T05:30:46.377Z,10.02
2019-04-05T05:33:15.854Z,10.00
2019-04-05T05:35:45.401Z,9.99
2019-04-05T05:38:15.067Z,9.93
2019-04-05T05:40:44.525Z,10.00
2019-04-05T05:43:13.994Z,10.02
2019-04-05T05:45:43.473Z,10.22
2019-04-05T05:48:13.320Z,10.30
2019-04-05T05:50:42.974Z,10.42
2019-04-05T05:53:12.615Z,10.42
2019-04-05T05:55:42.378Z,10.49
2019-04-05T05:58:11.843Z,10.82
2019-04-05T06:00:41.304Z,10.82
2019-04-05T06:03:16.509Z,10.94
2019-04-05T06:05:44.898Z,11.04
2019-04-05T06:08:14.364Z,11.12
2019-04-05T06:10:43.817Z,11.10
2019-04-05T06:13:13.301Z,11.18
2019-04-05T06:15:42.774Z,10.98
2019-04-05T06:18:12.834Z,11.14
2019-04-05T06:20:42.759Z,11.22
2019-04-05T06:23:12.233Z,11.40
2019-04-05T06:25:41.714Z,11.68
2019-04-05T06:28:11.198Z,12.26
2019-04-05T06:30:40.725Z,12.26
2019-04-05T06:33:10.558Z,12.64
2019-04-05T06:35:40.372Z,12.64
2019-04-05T06:38:09.859Z,12.77
2019-04-05T06:40:41.286Z,12.66
2019-04-05T06:43:10.911Z,12.44
2019-04-05T06:45:40.974Z,12.61
2019-04-05T06:48:19.193Z,13.08
2019-04-05T06:50:41.709Z,14.02
2019-04-05T06:53:11.183Z,14.43
2019-04-05T06:55:40.924Z,14.92
2019-04-05T06:58:10.702Z,15.33
2019-04-05T07:00:56.094Z,14.70
2019-04-05T07:03:13.738Z,13.33
2019-04-05T07:05:43.278Z,13.56
2019-04-05T07:08:12.777Z,13.80
2019-04-05T07:10:45.073Z,14.13
2019-04-05T07:13:13.418Z,14.25
2019-04-05T07:15:42.885Z,14.12
2019-04-05T07:18:12.367Z,13.97
2019-04-05T07:20:41.819Z,13.71
2019-04-05T07:23:11.310Z,13.30
2019-04-05T07:25:40.778Z,13.45
2019-04-05T07:28:10.265Z,12.76
2019-04-05T07:30:39.725Z,12.76
2019-04-05T07:33:09.219Z,13.05
2019-04-05T07:35:38.679Z,13.05
2019-04-05T07:38:09.730Z,12.94
2019-04-05T07:40:39.384Z,12.98
2019-04-05T07:43:08.865Z,12.92
2019-04-05T07:45:38.322Z,13.23
2019-04-05T07:48:07.797Z,13.76
2019-04-05T07:50:37.258Z,14.78
2019-04-05T07:53:07.041Z,15.40
2019-04-05T07:55:36.502Z,15.89
2019-04-05T07:58:06.255Z,16.44
2019-04-05T08:00:48.416Z,17.30
2019-04-05T08:03:18.331Z,15.86
2019-04-05T08:05:48.649Z,17.76
2019-04-05T08:08:42.399Z,19.24
2019-04-05T08:11:12.260Z,20.11
2019-04-05T08:13:42.715Z,20.96
2019-04-05T08:16:12.178Z,20.71
2019-04-05T08:18:41.838Z,19.68
2019-04-05T08:21:11.280Z,21.54
2019-04-05T08:23:41.057Z,22.62
2019-04-05T08:26:10.781Z,23.18
2019-04-05T08:28:40.265Z,23.07
2019-04-05T08:31:11.046Z,23.52
2019-04-05T08:33:40.940Z,18.81
2019-04-05T08:36:10.400Z,21.76
2019-04-05T08:38:40.117Z,22.48
2019-04-05T08:41:09.627Z,22.88
2019-04-05T08:43:39.160Z,22.52
2019-04-05T08:46:08.640Z,21.05
2019-04-05T08:48:38.120Z,21.83
2019-04-05T08:51:07.658Z,23.00
2019-04-05T08:53:37.132Z,24.17
2019-04-05T08:56:06.589Z,24.61
2019-04-05T08:58:36.065Z,25.17
2019-04-05T09:01:05.602Z,23.80
2019-04-05T09:03:35.069Z,24.80
2019-04-05T09:06:04.589Z,24.69
2019-04-05T09:08:34.094Z,24.09
2019-04-05T09:11:03.536Z,24.50
2019-04-05T09:13:35.497Z,24.16
2019-04-05T09:16:05.284Z,24.66
2019-04-05T09:18:34.850Z,25.57
2019-04-05T09:21:04.305Z,26.17
2019-04-05T09:23:34.108Z,26.44
2019-04-05T09:26:03.742Z,22.09
2019-04-05T09:28:33.584Z,23.39
2019-04-05T09:31:03.050Z,22.98
2019-04-05T09:33:32.521Z,24.80
2019-04-05T09:36:01.984Z,24.73
2019-04-05T09:38:31.453Z,23.08
2019-04-05T09:41:00.906Z,24.51
2019-04-05T09:43:30.371Z,25.44
2019-04-05T09:45:59.829Z,26.46
2019-04-05T09:48:29.285Z,28.12
2019-04-05T09:50:58.927Z,28.69
2019-04-05T09:53:28.403Z,28.68
2019-04-05T09:55:58.057Z,26.73
2019-04-05T09:58:27.557Z,26.04
2019-04-05T10:00:57.018Z,26.95
2019-04-05T10:03:26.822Z,26.63
2019-04-05T10:05:56.308Z,25.22
2019-04-05T10:08:25.773Z,25.24
2019-04-05T10:11:07.657Z,23.35
2019-04-05T10:13:37.151Z,25.51
2019-04-05T10:16:06.612Z,24.09
2019-04-05T10:18:36.078Z,22.54
2019-04-05T10:21:05.780Z,22.61
2019-04-05T10:23:35.247Z,22.20
2019-04-05T10:26:04.814Z,19.62
2019-04-05T10:28:34.294Z,21.80
2019-04-05T10:31:03.813Z,22.14
2019-04-05T10:33:33.353Z,24.01
2019-04-05T10:36:02.806Z,22.40
2019-04-05T10:38:32.264Z,24.28
2019-04-05T10:41:01.712Z,25.14
2019-04-05T10:43:31.441Z,25.36
2019-04-05T10:46:00.883Z,26.01
2019-04-05T10:48:30.350Z,25.05
2019-04-05T10:50:59.802Z,24.92
2019-04-05T10:53:29.395Z,27.03
2019-04-05T10:55:58.856Z,27.68
2019-04-05T10:58:28.316Z,24.02
2019-04-05T11:00:57.938Z,24.51
2019-04-05T11:03:27.394Z,26.48
2019-04-05T11:05:57.256Z,27.74
2019-04-05T11:08:26.723Z,25.84
2019-04-05T11:10:56.185Z,23.47
2019-04-05T11:13:25.655Z,25.23
2019-04-05T11:15:55.119Z,26.44
2019-04-05T11:18:24.581Z,28.17
2019-04-05T11:20:54.025Z,28.78
2019-04-05T11:23:23.583Z,27.83
2019-04-05T11:25:53.040Z,25.85
2019-04-05T11:28:22.529Z,25.63
2019-04-05T11:30:52.337Z,25.27
2019-04-05T11:33:21.802Z,25.13
2019-04-05T11:35:51.545Z,24.81
2019-04-05T11:38:24.101Z,26.16
2019-04-05T11:40:52.759Z,26.46
2019-04-05T11:43:26.222Z,25.74
2019-04-05T11:45:55.563Z,26.24
2019-04-05T11:48:25.162Z,24.06
2019-04-05T11:50:54.657Z,25.88
2019-04-05T11:53:24.099Z,27.12
2019-04-05T11:55:53.566Z,27.64
2019-04-05T11:58:23.170Z,26.76
2019-04-05T12:01:00.053Z,27.14
2019-04-05T12:03:33.547Z,26.83
2019-04-05T12:06:03.021Z,27.45
2019-04-05T12:08:32.484Z,26.06
2019-04-05T12:11:02.026Z,25.13
2019-04-05T12:13:31.493Z,24.78
2019-04-05T12:16:00.941Z,25.12
2019-04-05T12:18:30.399Z,24.56
2019-04-05T12:21:00.755Z,25.71
2019-04-05T12:23:33.378Z,25.64
2019-04-05T12:26:04.742Z,26.11
2019-04-05T12:28:33.323Z,25.41
2019-04-05T12:31:03.397Z,24.69
2019-04-05T12:33:32.830Z,24.45
2019-04-05T12:36:02.299Z,24.18
2019-04-05T12:38:33.128Z,25.18
2019-04-05T12:41:04.505Z,24.99
2019-04-05T12:43:33.972Z,24.75
2019-04-05T12:46:04.211Z,23.37
2019-04-05T12:48:33.759Z,23.24
2019-04-05T12:51:05.475Z,23.84
2019-04-05T12:53:34.375Z,23.96
2019-04-05T12:56:04.719Z,25.20
2019-04-05T12:58:34.167Z,26.32
2019-04-05T13:01:03.889Z,23.73
2019-04-05T13:03:33.350Z,23.79
2019-04-05T13:06:02.903Z,23.00
2019-04-05T13:08:32.354Z,23.21
2019-04-05T13:11:02.377Z,22.70
2019-04-05T13:13:32.198Z,22.43
2019-04-05T13:16:01.664Z,23.55
2019-04-05T13:18:31.801Z,24.38
2019-04-05T13:21:13.995Z,24.09
2019-04-05T13:23:33.731Z,23.34
2019-04-05T13:26:03.663Z,22.86
2019-04-05T13:28:33.107Z,22.63
2019-04-05T13:31:02.918Z,21.99
2019-04-05T13:33:32.351Z,20.96
2019-04-05T13:36:01.814Z,20.81
2019-04-05T13:38:31.267Z,21.14
2019-04-05T13:41:01.655Z,21.79
2019-04-05T13:43:33.140Z,22.26
2019-04-05T13:46:02.609Z,22.28
2019-04-05T13:48:32.348Z,22.60
2019-04-05T13:51:01.834Z,23.06
2019-04-05T13:53:31.378Z,24.40
2019-04-05T13:56:01.163Z,24.49
2019-04-05T13:58:30.618Z,24.60
2019-04-05T14:01:00.363Z,24.53
2019-04-05T14:03:30.342Z,24.16
2019-04-05T14:05:59.849Z,24.14
2019-04-05T14:08:29.353Z,23.75
2019-04-05T14:11:00.397Z,23.87
2019-04-05T14:13:29.846Z,23.49
2019-04-05T14:15:59.352Z,23.18
2019-04-05T14:18:28.808Z,22.87
2019-04-05T14:20:58.335Z,22.79
2019-04-05T14:23:28.087Z,22.65
2019-04-05T14:25:59.976Z,22.33
2019-04-05T14:28:29.472Z,22.14
2019-04-05T14:31:02.257Z,22.40
2019-04-05T14:33:30.611Z,22.65
2019-04-05T14:36:00.077Z,23.31
2019-04-05T14:38:31.324Z,24.39
2019-04-05T14:41:01.021Z,23.98
2019-04-05T14:43:30.501Z,24.06
2019-04-05T14:46:02.667Z,24.75
2019-04-05T14:48:31.991Z,24.66
2019-04-05T14:51:01.657Z,24.27
2019-04-05T14:53:32.371Z,23.64
2019-04-05T14:56:02.577Z,23.04
2019-04-05T14:58:32.056Z,22.59
2019-04-05T15:01:01.524Z,22.08
2019-04-05T15:03:30.992Z,21.67
2019-04-05T15:06:00.470Z,21.32
2019-04-05T15:08:30.250Z,21.22
2019-04-05T15:10:59.744Z,20.93
2019-04-05T15:13:29.308Z,20.93
2019-04-05T15:15:58.830Z,21.05
2019-04-05T15:18:28.284Z,21.42
2019-04-05T15:20:57.867Z,21.67
2019-04-05T15:23:27.427Z,22.23
2019-04-05T15:25:56.952Z,22.64
2019-04-05T15:28:26.427Z,22.85
2019-04-05T15:30:56.598Z,22.71
2019-04-05T15:33:27.861Z,23.07
2019-04-05T15:36:02.144Z,23.24
2019-04-05T15:38:31.848Z,22.92
2019-04-05T15:41:00.605Z,23.02
2019-04-05T15:43:30.066Z,23.01
2019-04-05T15:45:59.810Z,23.01
2019-04-05T15:48:29.727Z,22.99
2019-04-05T15:50:59.473Z,22.83
2019-04-05T15:53:31.875Z,23.23
2019-04-05T15:56:04.026Z,23.17
2019-04-05T15:58:34.056Z,22.90
2019-04-05T16:01:04.470Z,22.64
2019-04-05T16:03:36.871Z,22.54
2019-04-05T16:06:05.872Z,22.49
2019-04-05T16:08:35.603Z,22.42
2019-04-05T16:11:05.527Z,21.93
2019-04-05T16:13:35.230Z,21.75
2019-04-05T16:16:04.705Z,21.81
2019-04-05T16:18:34.160Z,21.78
2019-04-05T16:21:03.622Z,21.46
2019-04-05T16:23:33.087Z,21.35
2019-04-05T16:26:02.634Z,21.04
2019-04-05T16:28:32.193Z,21.01
2019-04-05T16:31:01.948Z,20.87
2019-04-05T16:33:31.397Z,20.83
2019-04-05T16:36:05.454Z,20.56
2019-04-05T16:38:29.700Z,20.27
2019-04-05T16:40:59.179Z,20.07
2019-04-05T16:43:28.644Z,19.90
2019-04-05T16:45:58.123Z,19.86
2019-04-05T16:48:27.613Z,19.73
2019-04-05T16:51:00.029Z,19.76
2019-04-05T16:53:30.647Z,19.68
2019-04-05T16:56:00.420Z,19.54
2019-04-05T16:58:36.208Z,19.40
2019-04-05T17:01:05.867Z,19.37
2019-04-05T17:03:35.417Z,19.25
2019-04-05T17:06:04.874Z,19.11
2019-04-05T17:08:34.336Z,19.17
2019-04-05T17:11:03.814Z,19.22
2019-04-05T17:13:33.286Z,19.24
2019-04-05T17:16:02.743Z,19.18
2019-04-05T17:18:32.206Z,19.10
2019-04-05T17:21:01.688Z,18.94
2019-04-05T17:23:33.155Z,18.79
2019-04-05T17:26:02.289Z,18.70
2019-04-05T17:28:31.758Z,18.66
2019-04-05T17:31:01.536Z,18.62
2019-04-05T17:33:31.027Z,18.46
2019-04-05T17:36:07.394Z,18.32
2019-04-05T17:38:36.851Z,18.28
2019-04-05T17:41:06.467Z,18.06
2019-04-05T17:43:38.653Z,17.95
2019-04-05T17:46:08.404Z,17.85
2019-04-05T17:48:37.868Z,17.75
2019-04-05T17:51:07.430Z,17.68
2019-04-05T17:53:36.884Z,17.55
2019-04-05T17:56:06.359Z,17.47
2019-04-05T17:58:37.208Z,17.42
2019-04-05T18:01:06.765Z,17.31
2019-04-05T18:03:36.232Z,17.21
2019-04-05T18:06:05.748Z,17.13
2019-04-05T18:08:35.206Z,17.06
2019-04-05T18:11:06.117Z,16.99
2019-04-05T18:13:53.128Z,16.93
2019-04-05T18:16:40.866Z,16.83
2019-04-05T18:19:09.804Z,16.73
2019-04-05T18:21:38.750Z,16.65
2019-04-05T18:24:07.936Z,16.57
2019-04-05T18:26:36.884Z,16.56
2019-04-05T18:29:06.467Z,16.55
2019-04-05T18:31:35.888Z,16.48
2019-04-05T18:34:05.611Z,16.36
2019-04-05T18:36:35.074Z,16.25
2019-04-05T18:39:07.330Z,16.09
2019-04-05T18:41:36.797Z,16.02
2019-04-05T18:44:06.261Z,16.08
2019-04-05T18:46:35.713Z,15.95
2019-04-05T18:49:05.188Z,15.74
2019-04-05T18:51:34.975Z,15.58
2019-04-05T18:54:04.585Z,15.42
2019-04-05T18:56:34.037Z,15.29
2019-04-05T18:59:03.516Z,15.28
2019-04-05T19:01:32.998Z,15.19
2019-04-05T19:04:05.341Z,15.09
2019-04-05T19:06:33.883Z,14.97
2019-04-05T19:09:05.017Z,14.91
2019-04-05T19:11:34.480Z,14.79
2019-04-05T19:14:03.954Z,14.70
2019-04-05T19:16:33.415Z,14.59
2019-04-05T19:19:03.053Z,14.52
2019-04-05T19:21:32.539Z,14.40
2019-04-05T19:24:02.041Z,14.30
2019-04-05T19:26:31.494Z,14.20
2019-04-05T19:29:01.006Z,14.08
2019-04-05T19:49:12.211Z,13.60
2019-04-05T19:51:41.675Z,13.54
2019-04-05T19:54:11.151Z,13.53
2019-04-05T19:56:40.600Z,13.57
2019-04-05T19:59:10.053Z,13.60
2019-04-05T20:01:39.522Z,13.58
2019-04-05T20:04:09.006Z,13.55
2019-04-05T20:06:38.476Z,13.46
2019-04-05T20:09:08.003Z,13.31
2019-04-05T20:11:37.473Z,13.31
2019-04-05T20:14:06.957Z,13.23
2019-04-05T20:16:36.440Z,13.16
2019-04-05T20:19:05.918Z,13.05
2019-04-05T20:21:35.375Z,12.96
2019-04-05T20:24:13.788Z,12.87
2019-04-05T20:26:36.938Z,12.79
2019-04-05T20:29:06.660Z,12.77
2019-04-05T20:31:36.131Z,12.59
2019-04-05T20:34:05.894Z,12.59
2019-04-05T20:36:35.349Z,12.57
2019-04-05T20:39:07.055Z,12.46
2019-04-05T20:41:36.538Z,12.29
2019-04-05T20:44:06.007Z,12.29
2019-04-05T20:46:35.750Z,12.14
2019-04-05T20:49:05.465Z,12.13
2019-04-05T20:51:35.269Z,12.13
2019-04-05T20:54:04.900Z,12.08
2019-04-05T20:56:34.357Z,12.00
2019-04-05T20:59:03.838Z,11.85
2019-04-05T21:01:33.293Z,11.85
2019-04-05T21:04:02.753Z,11.79
2019-04-05T21:06:32.219Z,11.70
2019-04-05T21:09:04.479Z,11.59
2019-04-05T21:11:36.145Z,11.59
2019-04-05T21:14:05.600Z,11.58
2019-04-05T21:16:35.564Z,11.57
2019-04-05T21:19:05.183Z,11.51
2019-04-05T21:21:34.718Z,11.46
2019-04-05T21:24:04.157Z,11.46
2019-04-05T21:26:33.612Z,11.36
2019-04-05T21:29:03.090Z,11.40
2019-04-05T21:31:32.575Z,11.32
2019-04-05T21:34:02.048Z,11.24
2019-04-05T21:36:31.504Z,11.16
2019-04-05T21:39:00.957Z,11.16
2019-04-05T21:41:30.411Z,11.20
2019-04-05T21:43:59.894Z,11.18
2019-04-05T21:46:29.362Z,11.13
2019-04-05T21:48:58.867Z,11.04
2019-04-05T21:51:28.309Z,10.98
2019-04-05T21:53:57.781Z,10.96
2019-04-05T21:56:27.246Z,10.89
2019-04-05T21:58:56.721Z,10.82
2019-04-05T22:01:26.940Z,10.77
2019-04-05T22:03:56.990Z,10.72
2019-04-05T22:06:26.922Z,10.67
2019-04-05T22:08:56.474Z,10.62
2019-04-05T22:11:27.721Z,10.57
2019-04-05T22:13:57.079Z,10.50
2019-04-05T22:16:26.547Z,10.47
2019-04-05T22:18:56.037Z,10.50
2019-04-05T22:21:25.777Z,10.49
2019-04-05T22:23:55.255Z,10.55
2019-04-05T22:26:24.696Z,10.55
2019-04-05T22:28:54.171Z,10.45
2019-04-05T22:31:23.640Z,10.41
2019-04-05T22:33:53.159Z,10.38
2019-04-05T22:36:22.630Z,10.23
2019-04-05T22:38:52.088Z,10.16
2019-04-05T22:41:21.560Z,10.03
2019-04-05T22:43:51.007Z,9.94
2019-04-05T22:46:20.455Z,9.92
2019-04-05T22:48:49.898Z,9.89
2019-04-05T22:51:19.352Z,9.74
2019-04-05T22:53:48.809Z,9.74
2019-04-05T22:56:18.258Z,9.75
2019-04-05T22:58:47.712Z,9.77
2019-04-05T23:01:17.163Z,9.79
2019-04-05T23:03:46.778Z,9.81
2019-04-05T23:06:16.522Z,9.79
2019-04-05T23:08:45.963Z,9.73
2019-04-05T23:11:15.462Z,9.71
2019-04-05T23:13:44.899Z,9.68
2019-04-05T23:16:14.372Z,9.61
2019-04-05T23:18:43.811Z,9.57
2019-04-05T23:21:13.275Z,9.56
2019-04-05T23:23:42.714Z,9.59
2019-04-05T23:26:12.195Z,9.57
2019-04-05T23:28:41.673Z,9.48
2019-04-05T23:31:11.298Z,9.47
2019-04-05T23:33:40.845Z,9.44
2019-04-05T23:36:10.315Z,9.40
2019-04-05T23:38:39.825Z,9.35
2019-04-05T23:41:09.234Z,9.30
2019-04-05T23:43:38.933Z,9.30
2019-04-05T23:46:08.390Z,9.27
2019-04-05T23:48:37.831Z,9.17
2019-04-05T23:51:07.355Z,9.12
2019-04-05T23:53:36.812Z,9.10
2019-04-05T23:56:06.290Z,9.09
2019-04-05T23:58:35.724Z,9.06
